sensor_id;sensor_type;location;lat;lon;timestamp;temperature;humidity
22185;DHT22;11258;52.516;13.318;2023-09-19T00:00:26;19.30;99.90
22185;DHT22;11258;52.516;13.318;2023-09-19T00:02:57;19.30;99.90
22185;DHT22;11258;52.516;13.318;2023-09-19T00:05:25;19.30;99.90
22185;DHT22;11258;52.516;13.318;2023-09-19T00:07:54;19.30;99.90
22185;DHT22;11258;52.516;13.318;2023-09-19T00:10:24;19.20;99.90
22185;DHT22;11258;52.516;13.318;2023-09-19T00:12:59;19.20;99.90
22185;DHT22;11258;52.516;13.318;2023-09-19T00:15:26;19.30;99.90
22185;DHT22;11258;52.516;13.318;2023-09-19T00:17:55;19.40;99.90
22185;DHT22;11258;52.516;13.318;2023-09-19T00:20:21;19.30;99.90
22185;DHT22;11258;52.516;13.318;2023-09-19T00:22:49;19.30;99.90
22185;DHT22;11258;52.516;13.318;2023-09-19T00:25:17;19.30;99.90
22185;DHT22;11258;52.516;13.318;2023-09-19T00:27:43;19.30;99.90
22185;DHT22;11258;52.516;13.318;2023-09-19T00:30:11;19.20;99.90
22185;DHT22;11258;52.516;13.318;2023-09-19T00:32:45;19.10;99.90
22185;DHT22;11258;52.516;13.318;2023-09-19T00:35:16;19.10;99.90
22185;DHT22;11258;52.516;13.318;2023-09-19T00:37:42;19.00;99.90
22185;DHT22;11258;52.516;13.318;2023-09-19T00:40:09;19.00;99.90
22185;DHT22;11258;52.516;13.318;2023-09-19T00:42:47;19.00;99.90
22185;DHT22;11258;52.516;13.318;2023-09-19T00:45:14;19.00;99.90
22185;DHT22;11258;52.516;13.318;2023-09-19T00:47:50;19.00;99.90
22185;DHT22;11258;52.516;13.318;2023-09-19T00:50:18;19.00;99.90
22185;DHT22;11258;52.516;13.318;2023-09-19T00:52:46;19.00;99.90
22185;DHT22;11258;52.516;13.318;2023-09-19T00:55:14;19.10;99.90
22185;DHT22;11258;52.516;13.318;2023-09-19T00:57:41;19.10;99.90
22185;DHT22;11258;52.516;13.318;2023-09-19T01:00:08;19.10;99.90
22185;DHT22;11258;52.516;13.318;2023-09-19T01:02:37;19.10;99.90
22185;DHT22;11258;52.516;13.318;2023-09-19T01:05:03;19.10;99.90
22185;DHT22;11258;52.516;13.318;2023-09-19T01:07:31;19.10;99.90
22185;DHT22;11258;52.516;13.318;2023-09-19T01:09:57;19.10;99.90
22185;DHT22;11258;52.516;13.318;2023-09-19T01:18:01;19.00;99.90
22185;DHT22;11258;52.516;13.318;2023-09-19T01:23:20;19.10;99.90
22185;DHT22;11258;52.516;13.318;2023-09-19T01:31:23;19.00;99.90
22185;DHT22;11258;52.516;13.318;2023-09-19T01:34:03;19.10;99.90
22185;DHT22;11258;52.516;13.318;2023-09-19T01:36:35;19.20;99.90
22185;DHT22;11258;52.516;13.318;2023-09-19T01:39:06;19.20;99.90
22185;DHT22;11258;52.516;13.318;2023-09-19T01:41:45;19.30;99.90
22185;DHT22;11258;52.516;13.318;2023-09-19T01:44:28;19.30;99.90
22185;DHT22;11258;52.516;13.318;2023-09-19T01:46:58;19.30;99.90
22185;DHT22;11258;52.516;13.318;2023-09-19T01:49:38;19.30;99.90
22185;DHT22;11258;52.516;13.318;2023-09-19T01:52:09;19.30;99.90
22185;DHT22;11258;52.516;13.318;2023-09-19T01:54:52;19.30;99.90
22185;DHT22;11258;52.516;13.318;2023-09-19T01:57:28;19.30;99.90
22185;DHT22;11258;52.516;13.318;2023-09-19T02:00:02;19.30;99.90
22185;DHT22;11258;52.516;13.318;2023-09-19T02:02:35;19.20;99.90
22185;DHT22;11258;52.516;13.318;2023-09-19T02:05:02;19.10;99.90
22185;DHT22;11258;52.516;13.318;2023-09-19T02:07:29;19.10;99.90
22185;DHT22;11258;52.516;13.318;2023-09-19T02:09:57;19.10;99.90
22185;DHT22;11258;52.516;13.318;2023-09-19T02:12:24;19.00;99.90
22185;DHT22;11258;52.516;13.318;2023-09-19T02:14:50;19.00;99.90
22185;DHT22;11258;52.516;13.318;2023-09-19T02:17:15;19.00;99.90
22185;DHT22;11258;52.516;13.318;2023-09-19T02:19:42;19.00;99.90
22185;DHT22;11258;52.516;13.318;2023-09-19T02:22:08;18.90;99.90
22185;DHT22;11258;52.516;13.318;2023-09-19T02:24:37;18.90;99.90
22185;DHT22;11258;52.516;13.318;2023-09-19T02:27:04;18.90;99.90
22185;DHT22;11258;52.516;13.318;2023-09-19T02:29:31;18.90;99.90
22185;DHT22;11258;52.516;13.318;2023-09-19T02:31:58;18.90;99.90
22185;DHT22;11258;52.516;13.318;2023-09-19T02:34:24;18.90;99.90
22185;DHT22;11258;52.516;13.318;2023-09-19T02:36:51;18.90;99.90
22185;DHT22;11258;52.516;13.318;2023-09-19T02:39:19;18.90;99.90
22185;DHT22;11258;52.516;13.318;2023-09-19T02:41:44;18.80;99.90
22185;DHT22;11258;52.516;13.318;2023-09-19T02:44:11;18.90;99.90
22185;DHT22;11258;52.516;13.318;2023-09-19T02:46:37;18.80;99.90
22185;DHT22;11258;52.516;13.318;2023-09-19T02:49:03;18.80;99.90
22185;DHT22;11258;52.516;13.318;2023-09-19T02:51:32;18.80;99.90
22185;DHT22;11258;52.516;13.318;2023-09-19T02:54:01;18.80;99.90
22185;DHT22;11258;52.516;13.318;2023-09-19T02:56:28;18.80;99.90
22185;DHT22;11258;52.516;13.318;2023-09-19T02:58:56;18.80;99.90
22185;DHT22;11258;52.516;13.318;2023-09-19T03:01:22;18.80;99.90
22185;DHT22;11258;52.516;13.318;2023-09-19T03:03:48;18.80;99.90
22185;DHT22;11258;52.516;13.318;2023-09-19T03:06:13;18.80;99.90
22185;DHT22;11258;52.516;13.318;2023-09-19T03:08:40;18.80;99.90
22185;DHT22;11258;52.516;13.318;2023-09-19T03:11:22;18.80;99.90
22185;DHT22;11258;52.516;13.318;2023-09-19T03:14:05;18.80;99.90
22185;DHT22;11258;52.516;13.318;2023-09-19T03:16:31;18.80;99.90
22185;DHT22;11258;52.516;13.318;2023-09-19T03:18:57;18.70;99.90
22185;DHT22;11258;52.516;13.318;2023-09-19T03:21:23;18.80;99.90
22185;DHT22;11258;52.516;13.318;2023-09-19T03:24:18;18.80;99.90
22185;DHT22;11258;52.516;13.318;2023-09-19T03:26:43;18.70;99.90
22185;DHT22;11258;52.516;13.318;2023-09-19T03:29:10;18.70;99.90
22185;DHT22;11258;52.516;13.318;2023-09-19T03:31:36;18.70;99.90
22185;DHT22;11258;52.516;13.318;2023-09-19T03:34:02;18.70;99.90
22185;DHT22;11258;52.516;13.318;2023-09-19T03:36:30;18.70;99.90
22185;DHT22;11258;52.516;13.318;2023-09-19T03:38:55;18.70;99.90
22185;DHT22;11258;52.516;13.318;2023-09-19T03:41:21;18.70;99.90
22185;DHT22;11258;52.516;13.318;2023-09-19T03:43:47;18.60;99.90
22185;DHT22;11258;52.516;13.318;2023-09-19T03:46:12;18.60;99.90
22185;DHT22;11258;52.516;13.318;2023-09-19T03:48:40;18.70;99.90
22185;DHT22;11258;52.516;13.318;2023-09-19T03:51:06;18.60;99.90
22185;DHT22;11258;52.516;13.318;2023-09-19T03:53:31;18.60;99.90
22185;DHT22;11258;52.516;13.318;2023-09-19T03:55:57;18.70;99.90
22185;DHT22;11258;52.516;13.318;2023-09-19T03:58:23;18.60;99.90
22185;DHT22;11258;52.516;13.318;2023-09-19T04:00:48;18.70;99.90
22185;DHT22;11258;52.516;13.318;2023-09-19T04:03:15;18.70;99.90
22185;DHT22;11258;52.516;13.318;2023-09-19T04:05:46;18.60;99.90
22185;DHT22;11258;52.516;13.318;2023-09-19T04:08:13;18.60;99.90
22185;DHT22;11258;52.516;13.318;2023-09-19T04:10:41;18.60;99.90
22185;DHT22;11258;52.516;13.318;2023-09-19T04:13:07;18.60;99.90
22185;DHT22;11258;52.516;13.318;2023-09-19T04:15:33;18.60;99.90
22185;DHT22;11258;52.516;13.318;2023-09-19T04:17:58;18.60;99.90
22185;DHT22;11258;52.516;13.318;2023-09-19T04:20:24;18.60;99.90
22185;DHT22;11258;52.516;13.318;2023-09-19T04:22:49;18.60;99.90
22185;DHT22;11258;52.516;13.318;2023-09-19T04:25:15;18.50;99.90
22185;DHT22;11258;52.516;13.318;2023-09-19T04:27:41;18.40;99.90
22185;DHT22;11258;52.516;13.318;2023-09-19T04:30:09;18.40;99.90
22185;DHT22;11258;52.516;13.318;2023-09-19T04:32:37;18.40;99.90
22185;DHT22;11258;52.516;13.318;2023-09-19T04:35:08;18.40;99.90
22185;DHT22;11258;52.516;13.318;2023-09-19T04:37:39;18.40;99.90
22185;DHT22;11258;52.516;13.318;2023-09-19T04:40:09;18.40;99.90
22185;DHT22;11258;52.516;13.318;2023-09-19T04:42:39;18.30;99.90
22185;DHT22;11258;52.516;13.318;2023-09-19T04:45:04;18.30;99.90
22185;DHT22;11258;52.516;13.318;2023-09-19T04:47:30;18.30;99.90
22185;DHT22;11258;52.516;13.318;2023-09-19T04:49:56;18.20;99.90
22185;DHT22;11258;52.516;13.318;2023-09-19T04:52:24;18.20;99.90
22185;DHT22;11258;52.516;13.318;2023-09-19T04:54:49;18.20;99.90
22185;DHT22;11258;52.516;13.318;2023-09-19T04:57:15;18.20;99.90
22185;DHT22;11258;52.516;13.318;2023-09-19T04:59:41;18.20;99.90
22185;DHT22;11258;52.516;13.318;2023-09-19T05:02:07;18.20;99.90
22185;DHT22;11258;52.516;13.318;2023-09-19T05:04:35;18.20;99.90
22185;DHT22;11258;52.516;13.318;2023-09-19T05:07:01;18.20;99.90
22185;DHT22;11258;52.516;13.318;2023-09-19T05:09:29;18.20;99.90
22185;DHT22;11258;52.516;13.318;2023-09-19T05:11:54;18.20;99.90
22185;DHT22;11258;52.516;13.318;2023-09-19T05:14:21;18.20;99.90
22185;DHT22;11258;52.516;13.318;2023-09-19T05:16:48;18.30;99.90
22185;DHT22;11258;52.516;13.318;2023-09-19T05:19:13;18.20;99.90
22185;DHT22;11258;52.516;13.318;2023-09-19T05:21:39;18.20;99.90
22185;DHT22;11258;52.516;13.318;2023-09-19T05:24:05;18.30;99.90
22185;DHT22;11258;52.516;13.318;2023-09-19T05:26:34;18.30;99.90
22185;DHT22;11258;52.516;13.318;2023-09-19T05:29:00;18.40;99.90
22185;DHT22;11258;52.516;13.318;2023-09-19T05:31:27;18.50;99.90
22185;DHT22;11258;52.516;13.318;2023-09-19T05:33:53;18.50;99.90
22185;DHT22;11258;52.516;13.318;2023-09-19T05:36:20;18.50;99.90
22185;DHT22;11258;52.516;13.318;2023-09-19T05:38:46;18.60;99.90
22185;DHT22;11258;52.516;13.318;2023-09-19T05:41:15;18.60;99.90
22185;DHT22;11258;52.516;13.318;2023-09-19T05:43:41;18.70;99.90
22185;DHT22;11258;52.516;13.318;2023-09-19T05:46:07;18.90;99.90
22185;DHT22;11258;52.516;13.318;2023-09-19T05:48:33;19.10;99.90
22185;DHT22;11258;52.516;13.318;2023-09-19T05:50:59;19.30;99.90
22185;DHT22;11258;52.516;13.318;2023-09-19T05:53:27;19.40;99.90
22185;DHT22;11258;52.516;13.318;2023-09-19T05:55:54;19.20;99.90
22185;DHT22;11258;52.516;13.318;2023-09-19T05:58:20;19.60;99.90
22185;DHT22;11258;52.516;13.318;2023-09-19T06:00:46;20.00;99.90
22185;DHT22;11258;52.516;13.318;2023-09-19T06:03:14;20.30;99.90
22185;DHT22;11258;52.516;13.318;2023-09-19T06:05:40;20.90;99.90
22185;DHT22;11258;52.516;13.318;2023-09-19T06:08:06;21.20;99.90
22185;DHT22;11258;52.516;13.318;2023-09-19T06:10:33;21.50;99.90
22185;DHT22;11258;52.516;13.318;2023-09-19T06:13:02;21.70;99.90
22185;DHT22;11258;52.516;13.318;2023-09-19T06:15:28;22.20;99.90
22185;DHT22;11258;52.516;13.318;2023-09-19T06:17:55;22.40;99.90
22185;DHT22;11258;52.516;13.318;2023-09-19T06:20:22;22.90;99.90
22185;DHT22;11258;52.516;13.318;2023-09-19T06:22:49;22.90;99.90
22185;DHT22;11258;52.516;13.318;2023-09-19T06:25:15;22.80;99.90
22185;DHT22;11258;52.516;13.318;2023-09-19T06:27:48;22.70;99.90
22185;DHT22;11258;52.516;13.318;2023-09-19T06:30:14;23.30;99.90
22185;DHT22;11258;52.516;13.318;2023-09-19T06:32:41;23.90;99.90
22185;DHT22;11258;52.516;13.318;2023-09-19T06:35:14;24.10;99.90
22185;DHT22;11258;52.516;13.318;2023-09-19T06:37:41;24.90;99.90
22185;DHT22;11258;52.516;13.318;2023-09-19T06:40:13;25.70;99.90
22185;DHT22;11258;52.516;13.318;2023-09-19T06:42:47;26.50;99.90
22185;DHT22;11258;52.516;13.318;2023-09-19T06:45:14;27.40;99.90
22185;DHT22;11258;52.516;13.318;2023-09-19T06:47:47;27.80;99.90
22185;DHT22;11258;52.516;13.318;2023-09-19T06:50:16;28.20;99.90
22185;DHT22;11258;52.516;13.318;2023-09-19T06:52:44;28.80;99.90
22185;DHT22;11258;52.516;13.318;2023-09-19T06:55:10;29.60;99.90
22185;DHT22;11258;52.516;13.318;2023-09-19T06:57:39;30.00;99.90
22185;DHT22;11258;52.516;13.318;2023-09-19T07:00:06;30.90;99.90
22185;DHT22;11258;52.516;13.318;2023-09-19T07:02:41;30.80;99.90
22185;DHT22;11258;52.516;13.318;2023-09-19T07:05:07;30.10;99.90
22185;DHT22;11258;52.516;13.318;2023-09-19T07:07:32;30.40;99.90
22185;DHT22;11258;52.516;13.318;2023-09-19T07:10:03;30.30;99.90
22185;DHT22;11258;52.516;13.318;2023-09-19T07:12:31;30.20;99.90
22185;DHT22;11258;52.516;13.318;2023-09-19T07:14:58;30.00;99.90
22185;DHT22;11258;52.516;13.318;2023-09-19T07:17:23;30.40;99.90
22185;DHT22;11258;52.516;13.318;2023-09-19T07:19:49;28.40;99.90
22185;DHT22;11258;52.516;13.318;2023-09-19T07:22:16;27.70;99.90
22185;DHT22;11258;52.516;13.318;2023-09-19T07:24:41;26.90;99.90
22185;DHT22;11258;52.516;13.318;2023-09-19T07:27:08;26.30;99.90
22185;DHT22;11258;52.516;13.318;2023-09-19T07:29:34;25.70;99.90
22185;DHT22;11258;52.516;13.318;2023-09-19T07:32:00;24.90;99.90
22185;DHT22;11258;52.516;13.318;2023-09-19T07:34:25;24.10;99.90
22185;DHT22;11258;52.516;13.318;2023-09-19T07:36:51;23.60;99.90
22185;DHT22;11258;52.516;13.318;2023-09-19T07:39:17;23.50;99.90
22185;DHT22;11258;52.516;13.318;2023-09-19T07:41:42;23.60;99.90
22185;DHT22;11258;52.516;13.318;2023-09-19T07:44:08;23.40;99.90
22185;DHT22;11258;52.516;13.318;2023-09-19T07:46:35;22.90;99.90
22185;DHT22;11258;52.516;13.318;2023-09-19T07:49:01;22.90;99.90
22185;DHT22;11258;52.516;13.318;2023-09-19T07:51:27;22.90;99.90
22185;DHT22;11258;52.516;13.318;2023-09-19T07:53:53;23.50;99.90
22185;DHT22;11258;52.516;13.318;2023-09-19T07:56:20;24.00;99.90
22185;DHT22;11258;52.516;13.318;2023-09-19T07:58:46;24.50;99.90
22185;DHT22;11258;52.516;13.318;2023-09-19T08:01:12;24.60;99.90
22185;DHT22;11258;52.516;13.318;2023-09-19T08:03:39;24.60;99.90
22185;DHT22;11258;52.516;13.318;2023-09-19T08:06:06;24.60;99.90
22185;DHT22;11258;52.516;13.318;2023-09-19T08:08:33;24.50;99.90
22185;DHT22;11258;52.516;13.318;2023-09-19T08:11:06;24.10;99.90
22185;DHT22;11258;52.516;13.318;2023-09-19T08:13:41;24.40;99.90
22185;DHT22;11258;52.516;13.318;2023-09-19T08:16:13;24.60;99.90
22185;DHT22;11258;52.516;13.318;2023-09-19T08:18:40;24.00;99.90
22185;DHT22;11258;52.516;13.318;2023-09-19T08:21:06;23.40;99.90
22185;DHT22;11258;52.516;13.318;2023-09-19T08:23:39;23.10;99.90
22185;DHT22;11258;52.516;13.318;2023-09-19T08:26:06;23.10;99.90
22185;DHT22;11258;52.516;13.318;2023-09-19T08:28:34;23.00;99.90
22185;DHT22;11258;52.516;13.318;2023-09-19T08:31:03;23.00;99.90
22185;DHT22;11258;52.516;13.318;2023-09-19T08:33:36;23.20;99.90
22185;DHT22;11258;52.516;13.318;2023-09-19T08:36:06;23.40;99.90
22185;DHT22;11258;52.516;13.318;2023-09-19T08:38:34;23.80;99.90
22185;DHT22;11258;52.516;13.318;2023-09-19T08:41:01;23.90;99.90
22185;DHT22;11258;52.516;13.318;2023-09-19T08:43:30;23.70;99.90
22185;DHT22;11258;52.516;13.318;2023-09-19T08:46:15;24.70;99.90
22185;DHT22;11258;52.516;13.318;2023-09-19T08:49:06;25.10;99.90
22185;DHT22;11258;52.516;13.318;2023-09-19T08:51:42;25.40;99.90
22185;DHT22;11258;52.516;13.318;2023-09-19T08:56:46;24.90;99.90
22185;DHT22;11258;52.516;13.318;2023-09-19T08:59:13;24.60;99.90
22185;DHT22;11258;52.516;13.318;2023-09-19T09:01:40;24.40;99.90
22185;DHT22;11258;52.516;13.318;2023-09-19T09:04:09;24.20;99.90
22185;DHT22;11258;52.516;13.318;2023-09-19T09:06:38;23.50;99.90
22185;DHT22;11258;52.516;13.318;2023-09-19T09:09:08;23.80;99.90
22185;DHT22;11258;52.516;13.318;2023-09-19T09:11:34;24.00;99.90
22185;DHT22;11258;52.516;13.318;2023-09-19T09:14:02;23.70;99.90
22185;DHT22;11258;52.516;13.318;2023-09-19T09:16:30;23.60;99.90
22185;DHT22;11258;52.516;13.318;2023-09-19T09:18:56;23.70;99.90
22185;DHT22;11258;52.516;13.318;2023-09-19T09:21:22;23.60;99.90
22185;DHT22;11258;52.516;13.318;2023-09-19T09:23:50;23.70;99.90
22185;DHT22;11258;52.516;13.318;2023-09-19T09:29:03;24.40;99.90
22185;DHT22;11258;52.516;13.318;2023-09-19T09:31:29;24.80;99.90
22185;DHT22;11258;52.516;13.318;2023-09-19T09:33:55;24.00;99.90
22185;DHT22;11258;52.516;13.318;2023-09-19T09:36:39;23.60;99.90
22185;DHT22;11258;52.516;13.318;2023-09-19T09:39:07;24.20;99.90
22185;DHT22;11258;52.516;13.318;2023-09-19T09:41:44;24.60;99.90
22185;DHT22;11258;52.516;13.318;2023-09-19T09:44:18;24.00;99.90
22185;DHT22;11258;52.516;13.318;2023-09-19T09:46:45;23.60;99.90
22185;DHT22;11258;52.516;13.318;2023-09-19T09:49:25;23.80;99.90
22185;DHT22;11258;52.516;13.318;2023-09-19T09:52:07;24.10;99.90
22185;DHT22;11258;52.516;13.318;2023-09-19T09:54:35;24.40;99.90
22185;DHT22;11258;52.516;13.318;2023-09-19T09:57:09;24.50;99.90
22185;DHT22;11258;52.516;13.318;2023-09-19T09:59:54;24.80;99.90
22185;DHT22;11258;52.516;13.318;2023-09-19T10:02:30;25.10;99.90
22185;DHT22;11258;52.516;13.318;2023-09-19T10:05:16;24.70;99.90
22185;DHT22;11258;52.516;13.318;2023-09-19T10:07:54;24.70;99.90
22185;DHT22;11258;52.516;13.318;2023-09-19T10:10:31;24.60;99.90
22185;DHT22;11258;52.516;13.318;2023-09-19T10:13:20;24.40;99.90
22185;DHT22;11258;52.516;13.318;2023-09-19T10:15:50;24.40;99.90
22185;DHT22;11258;52.516;13.318;2023-09-19T10:18:24;24.30;99.90
22185;DHT22;11258;52.516;13.318;2023-09-19T10:20:51;23.70;99.90
22185;DHT22;11258;52.516;13.318;2023-09-19T10:23:19;23.80;99.90
22185;DHT22;11258;52.516;13.318;2023-09-19T10:25:50;23.80;99.90
22185;DHT22;11258;52.516;13.318;2023-09-19T10:28:17;23.40;99.90
22185;DHT22;11258;52.516;13.318;2023-09-19T10:30:48;23.20;99.90
22185;DHT22;11258;52.516;13.318;2023-09-19T10:33:20;23.50;99.90
22185;DHT22;11258;52.516;13.318;2023-09-19T10:35:49;23.70;99.90
22185;DHT22;11258;52.516;13.318;2023-09-19T10:38:23;23.60;99.90
22185;DHT22;11258;52.516;13.318;2023-09-19T10:40:51;23.80;99.90
22185;DHT22;11258;52.516;13.318;2023-09-19T10:43:19;24.00;99.90
22185;DHT22;11258;52.516;13.318;2023-09-19T10:45:47;24.40;99.90
22185;DHT22;11258;52.516;13.318;2023-09-19T10:48:16;24.40;99.90
22185;DHT22;11258;52.516;13.318;2023-09-19T10:53:41;24.60;99.90
22185;DHT22;11258;52.516;13.318;2023-09-19T10:56:09;24.40;99.90
22185;DHT22;11258;52.516;13.318;2023-09-19T10:58:43;24.00;99.90
22185;DHT22;11258;52.516;13.318;2023-09-19T11:01:11;23.90;99.90
22185;DHT22;11258;52.516;13.318;2023-09-19T11:03:43;23.80;99.90
22185;DHT22;11258;52.516;13.318;2023-09-19T11:08:54;23.20;99.90
22185;DHT22;11258;52.516;13.318;2023-09-19T11:16:39;23.00;99.90
22185;DHT22;11258;52.516;13.318;2023-09-19T11:19:05;23.00;99.90
22185;DHT22;11258;52.516;13.318;2023-09-19T11:26:42;23.10;99.90
22185;DHT22;11258;52.516;13.318;2023-09-19T11:29:30;23.20;99.90
22185;DHT22;11258;52.516;13.318;2023-09-19T11:31:57;23.30;99.90
22185;DHT22;11258;52.516;13.318;2023-09-19T11:37:05;23.20;99.90
22185;DHT22;11258;52.516;13.318;2023-09-19T11:40:08;23.10;99.90
22185;DHT22;11258;52.516;13.318;2023-09-19T11:42:47;23.30;99.90
22185;DHT22;11258;52.516;13.318;2023-09-19T11:48:15;23.50;99.90
22185;DHT22;11258;52.516;13.318;2023-09-19T11:50:45;23.40;99.90
22185;DHT22;11258;52.516;13.318;2023-09-19T11:53:13;23.40;99.90
22185;DHT22;11258;52.516;13.318;2023-09-19T11:55:42;23.50;99.90
22185;DHT22;11258;52.516;13.318;2023-09-19T11:58:12;23.40;99.90
22185;DHT22;11258;52.516;13.318;2023-09-19T12:00:40;23.30;99.90
22185;DHT22;11258;52.516;13.318;2023-09-19T12:03:10;23.20;99.90
22185;DHT22;11258;52.516;13.318;2023-09-19T12:05:37;23.50;99.90
22185;DHT22;11258;52.516;13.318;2023-09-19T12:08:07;23.40;99.90
22185;DHT22;11258;52.516;13.318;2023-09-19T12:10:48;23.40;99.90
22185;DHT22;11258;52.516;13.318;2023-09-19T12:13:18;23.40;99.90
22185;DHT22;11258;52.516;13.318;2023-09-19T12:15:45;23.40;99.90
22185;DHT22;11258;52.516;13.318;2023-09-19T12:18:33;23.50;99.90
22185;DHT22;11258;52.516;13.318;2023-09-19T12:21:01;23.60;99.90
22185;DHT22;11258;52.516;13.318;2023-09-19T12:23:30;23.70;99.90
22185;DHT22;11258;52.516;13.318;2023-09-19T12:25:56;23.50;99.90
22185;DHT22;11258;52.516;13.318;2023-09-19T12:28:26;23.30;99.90
22185;DHT22;11258;52.516;13.318;2023-09-19T12:30:52;23.30;99.90
22185;DHT22;11258;52.516;13.318;2023-09-19T12:33:21;23.30;99.90
22185;DHT22;11258;52.516;13.318;2023-09-19T12:35:50;23.40;99.90
22185;DHT22;11258;52.516;13.318;2023-09-19T12:38:27;23.50;99.90
22185;DHT22;11258;52.516;13.318;2023-09-19T12:41:01;23.50;99.90
22185;DHT22;11258;52.516;13.318;2023-09-19T12:43:29;23.60;99.90
22185;DHT22;11258;52.516;13.318;2023-09-19T12:45:58;23.50;99.90
22185;DHT22;11258;52.516;13.318;2023-09-19T12:48:26;23.60;99.90
22185;DHT22;11258;52.516;13.318;2023-09-19T12:51:11;23.50;99.90
22185;DHT22;11258;52.516;13.318;2023-09-19T12:53:47;23.60;99.90
22185;DHT22;11258;52.516;13.318;2023-09-19T12:56:22;23.40;99.90
22185;DHT22;11258;52.516;13.318;2023-09-19T12:58:56;23.30;99.90
22185;DHT22;11258;52.516;13.318;2023-09-19T13:01:26;23.40;99.90
22185;DHT22;11258;52.516;13.318;2023-09-19T13:04:21;23.30;99.90
22185;DHT22;11258;52.516;13.318;2023-09-19T13:06:55;23.30;99.90
22185;DHT22;11258;52.516;13.318;2023-09-19T13:09:26;23.20;99.90
22185;DHT22;11258;52.516;13.318;2023-09-19T13:12:00;23.10;99.90
22185;DHT22;11258;52.516;13.318;2023-09-19T13:14:28;23.00;99.90
22185;DHT22;11258;52.516;13.318;2023-09-19T13:19:45;23.00;99.90
22185;DHT22;11258;52.516;13.318;2023-09-19T13:22:42;23.10;99.90
22185;DHT22;11258;52.516;13.318;2023-09-19T13:25:20;23.10;99.90
22185;DHT22;11258;52.516;13.318;2023-09-19T13:27:50;23.00;99.90
22185;DHT22;11258;52.516;13.318;2023-09-19T13:30:27;23.10;99.90
22185;DHT22;11258;52.516;13.318;2023-09-19T13:33:10;23.20;99.90
22185;DHT22;11258;52.516;13.318;2023-09-19T13:35:39;23.50;99.90
22185;DHT22;11258;52.516;13.318;2023-09-19T13:38:06;23.40;99.90
22185;DHT22;11258;52.516;13.318;2023-09-19T13:40:38;23.10;99.90
22185;DHT22;11258;52.516;13.318;2023-09-19T13:43:05;23.00;99.90
22185;DHT22;11258;52.516;13.318;2023-09-19T13:45:32;23.00;99.90
22185;DHT22;11258;52.516;13.318;2023-09-19T13:47:57;23.00;99.90
22185;DHT22;11258;52.516;13.318;2023-09-19T13:50:26;22.90;99.90
22185;DHT22;11258;52.516;13.318;2023-09-19T13:52:54;22.80;99.90
22185;DHT22;11258;52.516;13.318;2023-09-19T13:55:20;22.80;99.90
22185;DHT22;11258;52.516;13.318;2023-09-19T13:57:47;23.00;99.90
22185;DHT22;11258;52.516;13.318;2023-09-19T14:00:15;22.80;99.90
22185;DHT22;11258;52.516;13.318;2023-09-19T14:02:42;22.70;99.90
22185;DHT22;11258;52.516;13.318;2023-09-19T14:05:09;22.70;99.90
22185;DHT22;11258;52.516;13.318;2023-09-19T14:07:37;22.70;99.90
22185;DHT22;11258;52.516;13.318;2023-09-19T14:10:04;22.70;99.90
22185;DHT22;11258;52.516;13.318;2023-09-19T14:12:34;22.80;99.90
22185;DHT22;11258;52.516;13.318;2023-09-19T14:15:00;22.90;99.90
22185;DHT22;11258;52.516;13.318;2023-09-19T14:17:25;22.80;99.90
22185;DHT22;11258;52.516;13.318;2023-09-19T14:19:52;22.80;99.90
22185;DHT22;11258;52.516;13.318;2023-09-19T14:22:18;22.80;99.90
22185;DHT22;11258;52.516;13.318;2023-09-19T14:24:43;22.90;99.90
22185;DHT22;11258;52.516;13.318;2023-09-19T14:27:09;22.80;99.90
22185;DHT22;11258;52.516;13.318;2023-09-19T14:29:36;22.80;99.90
22185;DHT22;11258;52.516;13.318;2023-09-19T14:32:01;22.90;99.90
22185;DHT22;11258;52.516;13.318;2023-09-19T14:34:27;22.70;99.90
22185;DHT22;11258;52.516;13.318;2023-09-19T14:36:53;22.80;99.90
22185;DHT22;11258;52.516;13.318;2023-09-19T14:39:22;22.80;99.90
22185;DHT22;11258;52.516;13.318;2023-09-19T14:41:48;22.70;99.90
22185;DHT22;11258;52.516;13.318;2023-09-19T14:44:14;22.60;99.90
22185;DHT22;11258;52.516;13.318;2023-09-19T14:46:41;22.60;99.90
22185;DHT22;11258;52.516;13.318;2023-09-19T14:49:08;22.60;99.90
22185;DHT22;11258;52.516;13.318;2023-09-19T14:51:36;22.60;99.90
22185;DHT22;11258;52.516;13.318;2023-09-19T14:54:03;22.60;99.90
22185;DHT22;11258;52.516;13.318;2023-09-19T14:56:29;22.50;99.90
22185;DHT22;11258;52.516;13.318;2023-09-19T14:58:56;22.50;99.90
22185;DHT22;11258;52.516;13.318;2023-09-19T15:01:22;22.40;99.90
22185;DHT22;11258;52.516;13.318;2023-09-19T15:03:48;22.60;99.90
22185;DHT22;11258;52.516;13.318;2023-09-19T15:06:15;22.50;99.90
22185;DHT22;11258;52.516;13.318;2023-09-19T15:08:44;22.50;99.90
22185;DHT22;11258;52.516;13.318;2023-09-19T15:11:13;22.40;99.90
22185;DHT22;11258;52.516;13.318;2023-09-19T15:13:41;22.40;99.90
22185;DHT22;11258;52.516;13.318;2023-09-19T15:16:08;22.30;99.90
22185;DHT22;11258;52.516;13.318;2023-09-19T15:18:39;22.30;99.90
22185;DHT22;11258;52.516;13.318;2023-09-19T15:21:06;22.30;99.90
22185;DHT22;11258;52.516;13.318;2023-09-19T15:23:33;22.20;99.90
22185;DHT22;11258;52.516;13.318;2023-09-19T15:26:10;22.20;99.90
22185;DHT22;11258;52.516;13.318;2023-09-19T15:28:37;22.20;99.90
22185;DHT22;11258;52.516;13.318;2023-09-19T15:31:07;22.20;99.90
22185;DHT22;11258;52.516;13.318;2023-09-19T15:33:33;22.20;99.90
22185;DHT22;11258;52.516;13.318;2023-09-19T15:36:10;22.10;99.90
22185;DHT22;11258;52.516;13.318;2023-09-19T15:39:08;22.10;99.90
22185;DHT22;11258;52.516;13.318;2023-09-19T15:41:39;22.00;99.90
22185;DHT22;11258;52.516;13.318;2023-09-19T15:44:14;22.00;99.90
22185;DHT22;11258;52.516;13.318;2023-09-19T15:46:40;22.00;99.90
22185;DHT22;11258;52.516;13.318;2023-09-19T15:49:06;22.00;99.90
22185;DHT22;11258;52.516;13.318;2023-09-19T15:51:33;22.00;99.90
22185;DHT22;11258;52.516;13.318;2023-09-19T15:53:59;22.00;99.90
22185;DHT22;11258;52.516;13.318;2023-09-19T15:56:26;21.90;99.90
22185;DHT22;11258;52.516;13.318;2023-09-19T15:58:53;21.90;99.90
22185;DHT22;11258;52.516;13.318;2023-09-19T16:01:20;21.90;99.90
22185;DHT22;11258;52.516;13.318;2023-09-19T16:03:51;21.90;99.90
22185;DHT22;11258;52.516;13.318;2023-09-19T16:06:27;21.80;99.90
22185;DHT22;11258;52.516;13.318;2023-09-19T16:08:56;21.70;99.90
22185;DHT22;11258;52.516;13.318;2023-09-19T16:11:24;21.60;99.90